パリ/シャルル・ド・ゴール の空港の天気 - METARとTAF

シャルル・ド・ゴール国際空港(パリ) ( LFPG / CDG ) - フランス Paris
飛行場実況気象(Metar)
観測時間10/22 14:00 CEST (10/22 12:00 UTC)
風向・風速南西 4m/s
視程10km以上
天気現象
少しの雲 雲底高度 640m
全天の4割程度の雲 雲底高度 5490m
気温19℃
湿度73%
気圧1012hPa
METARLFPG 221200Z 23008KT 9999 FEW021 SCT180 19/14 Q1012 NOSIG
過去の天気等 Google飛行場航空写真 Wunderground天気予報

過去48時間のMETAR

飛行場予報(TAF)
発表時間: 10/22 13:00 CEST (10/22 11:00 UTC)
予報対象時間: 22日14時 CEST ~ 23日20時 CEST
風向・風速南西 5m/s
視程10km以上
全天の4割程度の雲 雲底高度 370m
22日16時 CEST ~ 22日23時 CEST に 確率 40% で一時的に
全天の4割程度の塔状積雲 雲底高度 610m
22日19時 CEST ~ 22日23時 CEST に 確率 30% で一時的に
視程3000m
天気現象雷雨
全天の4割程度の積乱雲 雲底高度 760m
23日2時 CEST ~ 23日11時 CEST に一時的に
全天の8割程度の雲 雲底高度 120m
23日2時 CEST ~ 23日10時 CEST に 確率 40% で一時的に
視程4000m
天気現象もや
23日2時 CEST ~ 23日8時 CEST に 確率 30% で一時的に
視程600m
天気現象
TAF LFPG 221100Z 2212/2318 22010KT 9999 SCT012 TX19/2214Z TN13/2305Z
PROB40 TEMPO 2214/2221 SCT020TCU
PROB30 TEMPO 2217/2221 3000 TSRA SCT025CB
TEMPO 2300/2309 BKN004
PROB40 TEMPO 2300/2308 4000 BR
PROB30 TEMPO 2300/2306 0600 FG VV///